createdAt,value
2023-04-07T00:00:37.749Z,99.99
2023-04-07T00:01:37.908Z,99.99
2023-04-07T00:02:37.832Z,99.99
2023-04-07T00:03:37.884Z,99.99
2023-04-07T00:04:37.783Z,99.99
2023-04-07T00:05:37.701Z,99.99
2023-04-07T00:06:37.709Z,99.99
2023-04-07T00:07:45.258Z,99.99
2023-04-07T00:08:38.660Z,99.99
2023-04-07T00:09:37.662Z,99.99
2023-04-07T00:10:37.652Z,99.99
2023-04-07T00:11:37.636Z,99.99
2023-04-07T00:12:37.625Z,99.99
2023-04-07T00:13:37.602Z,99.99
2023-04-07T00:14:37.601Z,99.99
2023-04-07T00:15:37.602Z,99.99
2023-04-07T00:16:37.569Z,99.99
2023-04-07T00:17:37.611Z,99.99
2023-04-07T00:18:37.557Z,99.99
2023-04-07T00:19:37.562Z,99.99
2023-04-07T00:20:37.540Z,99.99
2023-04-07T00:21:37.549Z,99.99
2023-04-07T00:22:37.514Z,99.99
2023-04-07T00:23:37.499Z,99.99
2023-04-07T00:24:37.527Z,99.99
2023-04-07T00:25:37.492Z,99.99
2023-04-07T00:26:38.599Z,99.99
2023-04-07T00:27:37.457Z,99.99
2023-04-07T00:28:37.445Z,99.99
2023-04-07T00:29:37.452Z,99.99
2023-04-07T00:30:37.423Z,99.99
2023-04-07T00:31:37.434Z,99.99
2023-04-07T00:32:37.446Z,99.99
2023-04-07T00:33:37.390Z,99.99
2023-04-07T00:34:37.390Z,99.99
2023-04-07T00:35:37.447Z,99.99
2023-04-07T00:36:37.349Z,99.99
2023-04-07T00:37:37.356Z,99.99
2023-04-07T00:38:37.334Z,99.99
2023-04-07T00:39:37.318Z,99.99
2023-04-07T00:40:37.288Z,99.99
2023-04-07T00:41:37.288Z,99.99
2023-04-07T00:42:37.313Z,99.99
2023-04-07T00:43:37.264Z,99.99
2023-04-07T00:44:37.270Z,99.99
2023-04-07T00:45:37.266Z,99.99
2023-04-07T00:46:37.266Z,99.99
2023-04-07T00:47:37.240Z,99.99
2023-04-07T00:48:37.212Z,99.99
2023-04-07T00:49:37.200Z,99.99
2023-04-07T00:50:37.191Z,99.99
2023-04-07T00:51:37.222Z,99.99
2023-04-07T00:52:37.178Z,99.99
2023-04-07T00:53:37.146Z,99.99
2023-04-07T00:54:37.166Z,99.99
2023-04-07T00:55:37.135Z,99.99
2023-04-07T00:56:37.151Z,99.99
2023-04-07T00:57:37.114Z,99.99
2023-04-07T00:58:37.108Z,99.99
2023-04-07T00:59:37.105Z,99.99
2023-04-07T01:00:37.079Z,99.99
2023-04-07T01:01:37.132Z,99.99
2023-04-07T01:02:37.287Z,99.99
2023-04-07T01:03:37.331Z,99.99
2023-04-07T01:04:37.186Z,99.99
2023-04-07T01:05:37.046Z,99.99
2023-04-07T01:06:37.024Z,99.99
2023-04-07T01:07:37.013Z,99.99
2023-04-07T01:08:36.984Z,99.99
2023-04-07T01:09:36.983Z,99.99
2023-04-07T01:10:36.982Z,99.99
2023-04-07T01:11:36.932Z,99.99
2023-04-07T01:12:36.942Z,99.99
2023-04-07T01:13:36.918Z,99.99
2023-04-07T01:14:36.945Z,99.99
2023-04-07T01:15:36.906Z,99.99
2023-04-07T01:16:36.942Z,99.99
2023-04-07T01:17:36.932Z,99.99
2023-04-07T01:18:36.882Z,99.99
2023-04-07T01:19:36.890Z,99.99
2023-04-07T01:20:36.872Z,99.99
2023-04-07T01:21:36.828Z,99.99
2023-04-07T01:22:36.819Z,99.99
2023-04-07T01:23:36.835Z,99.99
2023-04-07T01:24:36.812Z,99.99
2023-04-07T01:25:36.815Z,99.99
2023-04-07T01:26:36.788Z,99.99
2023-04-07T01:27:36.775Z,99.99
2023-04-07T01:28:36.784Z,99.99
2023-04-07T01:29:36.824Z,99.99
2023-04-07T01:30:36.731Z,99.99
2023-04-07T01:31:36.780Z,99.99
2023-04-07T01:32:36.743Z,99.99
2023-04-07T01:33:37.800Z,99.99
2023-04-07T01:34:36.723Z,99.99
2023-04-07T01:35:36.679Z,99.99
2023-04-07T01:36:36.683Z,99.99
2023-04-07T01:37:36.653Z,99.99
2023-04-07T01:38:36.659Z,99.99
2023-04-07T01:39:36.648Z,99.99
2023-04-07T01:40:36.620Z,99.99
2023-04-07T01:41:36.614Z,99.99
2023-04-07T01:42:36.621Z,99.99
2023-04-07T01:43:36.668Z,99.99
2023-04-07T01:44:36.587Z,99.99
2023-04-07T01:45:36.888Z,99.99
2023-04-07T01:46:36.888Z,99.99
2023-04-07T01:47:36.674Z,99.99
2023-04-07T01:48:36.573Z,99.99
2023-04-07T01:49:36.575Z,99.99
2023-04-07T01:50:36.525Z,99.99
2023-04-07T01:51:36.512Z,99.99
2023-04-07T01:52:36.640Z,99.99
2023-04-07T01:53:36.492Z,99.99
2023-04-07T01:54:36.512Z,99.99
2023-04-07T01:55:36.454Z,99.99
2023-04-07T01:56:36.454Z,99.99
2023-04-07T01:57:36.435Z,99.99
2023-04-07T01:58:36.420Z,99.99
2023-04-07T01:59:36.433Z,99.99
2023-04-07T02:00:36.429Z,99.99
2023-04-07T02:01:36.536Z,99.99
2023-04-07T02:02:36.528Z,99.99
2023-04-07T02:03:36.473Z,99.99
2023-04-07T02:04:36.370Z,99.99
2023-04-07T02:05:36.390Z,99.99
2023-04-07T02:06:36.336Z,99.99
2023-04-07T02:07:36.324Z,99.99
2023-04-07T02:08:36.317Z,99.99
2023-04-07T02:09:36.302Z,99.99
2023-04-07T02:10:36.624Z,99.99
2023-04-07T02:11:36.291Z,99.99
2023-04-07T02:12:36.285Z,99.99
2023-04-07T02:13:36.269Z,99.99
2023-04-07T02:14:36.244Z,99.99
2023-04-07T02:15:36.246Z,99.99
2023-04-07T02:16:36.246Z,99.99
2023-04-07T02:17:36.276Z,99.99
2023-04-07T02:18:36.213Z,99.99
2023-04-07T02:19:36.209Z,99.99
2023-04-07T02:20:36.175Z,99.99
2023-04-07T02:21:36.180Z,99.99
2023-04-07T02:22:36.182Z,99.99
2023-04-07T02:23:36.160Z,99.99
2023-04-07T02:24:36.155Z,99.99
2023-04-07T02:25:36.116Z,99.99
2023-04-07T02:26:36.162Z,99.99
2023-04-07T02:27:36.091Z,99.99
2023-04-07T02:28:36.107Z,99.99
2023-04-07T02:29:36.088Z,99.99
2023-04-07T02:30:36.078Z,99.99
2023-04-07T02:31:36.097Z,99.99
2023-04-07T02:32:36.091Z,99.99
2023-04-07T02:33:36.032Z,99.99
2023-04-07T02:34:36.035Z,99.99
2023-04-07T02:35:36.026Z,99.99
2023-04-07T02:36:36.022Z,99.99
2023-04-07T02:37:35.997Z,99.99
2023-04-07T02:38:35.963Z,99.99
2023-04-07T02:39:38.836Z,99.99
2023-04-07T02:40:35.973Z,99.99
2023-04-07T02:41:35.954Z,99.99
2023-04-07T02:42:38.929Z,99.99
2023-04-07T02:43:35.942Z,99.99
2023-04-07T02:44:35.927Z,99.99
2023-04-07T02:45:35.943Z,99.99
2023-04-07T02:46:35.951Z,99.99
2023-04-07T02:47:35.934Z,99.99
2023-04-07T02:48:35.901Z,99.99
2023-04-07T02:49:35.868Z,99.99
2023-04-07T02:50:35.842Z,99.99
2023-04-07T02:51:35.814Z,99.99
2023-04-07T02:52:35.866Z,99.99
2023-04-07T02:53:35.830Z,99.99
2023-04-07T02:54:35.799Z,99.99
2023-04-07T02:55:35.825Z,99.99
2023-04-07T02:56:35.761Z,99.99
2023-04-07T02:57:35.772Z,99.99
2023-04-07T02:58:35.744Z,99.99
2023-04-07T02:59:35.740Z,99.99
2023-04-07T03:00:35.724Z,99.99
2023-04-07T03:01:35.736Z,99.99
2023-04-07T03:02:35.817Z,99.99
2023-04-07T03:03:35.762Z,99.99
2023-04-07T03:04:35.730Z,99.99
2023-04-07T03:05:35.686Z,99.99
2023-04-07T03:06:35.641Z,99.99
2023-04-07T03:07:35.639Z,99.99
2023-04-07T03:08:35.642Z,99.99
2023-04-07T03:09:35.628Z,99.99
2023-04-07T03:10:35.614Z,99.99
2023-04-07T03:11:35.602Z,99.99
2023-04-07T03:12:35.593Z,99.99
2023-04-07T03:13:35.573Z,99.99
2023-04-07T03:14:35.587Z,99.99
2023-04-07T03:15:35.589Z,99.99
2023-04-07T03:16:35.572Z,99.99
2023-04-07T03:17:35.608Z,99.99
2023-04-07T03:18:35.565Z,99.99
2023-04-07T03:19:35.543Z,99.99
2023-04-07T03:20:35.511Z,99.99
2023-04-07T03:21:35.497Z,99.99
2023-04-07T03:22:35.527Z,99.99
2023-04-07T03:23:35.478Z,99.99
2023-04-07T03:24:35.454Z,99.99
2023-04-07T03:25:35.445Z,99.99
2023-04-07T03:26:35.457Z,99.99
2023-04-07T03:27:35.423Z,99.99
2023-04-07T03:28:35.539Z,99.99
2023-04-07T03:29:35.398Z,99.99
2023-04-07T03:30:35.443Z,99.99
2023-04-07T03:31:35.363Z,99.99
2023-04-07T03:32:35.426Z,99.99
2023-04-07T03:33:35.355Z,99.99
2023-04-07T03:34:35.405Z,99.99
2023-04-07T03:35:35.314Z,99.99
2023-04-07T03:36:35.330Z,99.99
2023-04-07T03:37:35.310Z,99.99
2023-04-07T03:38:35.308Z,99.99
2023-04-07T03:39:35.325Z,99.99
2023-04-07T03:40:35.288Z,99.99
2023-04-07T03:41:35.267Z,99.99
2023-04-07T03:42:35.541Z,99.99
2023-04-07T03:43:35.256Z,99.99
2023-04-07T03:44:35.244Z,99.99
2023-04-07T03:45:35.227Z,99.99
2023-04-07T03:46:35.273Z,99.99
2023-04-07T03:47:35.205Z,99.99
2023-04-07T03:48:35.193Z,99.99
2023-04-07T03:49:35.215Z,99.99
2023-04-07T03:50:35.166Z,99.99
2023-04-07T03:51:35.187Z,99.99
2023-04-07T03:52:35.149Z,99.99
2023-04-07T03:53:35.149Z,99.99
2023-04-07T03:54:35.138Z,99.99
2023-04-07T03:55:35.131Z,99.99
2023-04-07T03:56:35.104Z,99.99
2023-04-07T03:57:35.114Z,99.99
2023-04-07T03:58:37.893Z,99.99
2023-04-07T03:59:37.077Z,99.99
2023-04-07T04:00:35.049Z,99.99
2023-04-07T04:01:35.206Z,99.99
2023-04-07T04:02:35.150Z,99.99
2023-04-07T04:03:35.198Z,99.99
2023-04-07T04:04:35.382Z,99.99
2023-04-07T04:05:35.006Z,99.99
2023-04-07T04:06:35.066Z,99.99
2023-04-07T04:07:35.033Z,99.99
2023-04-07T04:08:34.972Z,99.99
2023-04-07T04:09:35.034Z,99.99
2023-04-07T04:10:34.955Z,99.99
2023-04-07T04:11:34.945Z,99.99
2023-04-07T04:12:34.919Z,99.99
2023-04-07T04:13:34.889Z,99.99
2023-04-07T04:14:34.930Z,99.99
2023-04-07T04:15:35.343Z,99.99
2023-04-07T04:16:34.975Z,99.99
2023-04-07T04:17:34.941Z,99.99
2023-04-07T04:18:37.616Z,99.99
2023-04-07T04:19:37.661Z,99.99
2023-04-07T04:20:34.889Z,99.99
2023-04-07T04:21:34.816Z,99.99
2023-04-07T04:22:34.833Z,99.99
2023-04-07T04:23:34.843Z,99.99
2023-04-07T04:24:34.795Z,99.99
2023-04-07T04:25:34.776Z,99.99
2023-04-07T04:26:34.753Z,99.99
2023-04-07T04:27:35.186Z,99.99
2023-04-07T04:28:38.971Z,99.99
2023-04-07T04:29:34.762Z,99.99
2023-04-07T04:30:34.783Z,99.99
2023-04-07T04:31:34.744Z,99.99
2023-04-07T04:32:34.753Z,99.99
2023-04-07T04:33:34.697Z,99.99
2023-04-07T04:34:34.714Z,99.99
2023-04-07T04:35:34.673Z,99.99
2023-04-07T04:36:35.677Z,99.99
2023-04-07T04:37:34.636Z,99.99
2023-04-07T04:38:34.678Z,99.99
2023-04-07T04:39:34.606Z,99.99
2023-04-07T04:40:34.661Z,99.99
2023-04-07T04:41:34.646Z,99.99
2023-04-07T04:42:34.595Z,99.99
2023-04-07T04:43:34.563Z,99.99
2023-04-07T04:44:34.589Z,99.99
2023-04-07T04:45:34.547Z,99.99
2023-04-07T04:46:34.600Z,99.99
2023-04-07T04:47:34.597Z,99.99
2023-04-07T04:48:34.550Z,99.99
2023-04-07T04:49:34.508Z,99.99
2023-04-07T04:50:34.570Z,99.99
2023-04-07T04:51:34.523Z,99.99
2023-04-07T04:52:34.530Z,99.99
2023-04-07T04:53:34.465Z,99.99
2023-04-07T04:54:34.519Z,99.99
2023-04-07T04:55:34.455Z,99.99
2023-04-07T04:56:34.480Z,99.99
2023-04-07T04:57:34.419Z,99.99
2023-04-07T04:58:34.420Z,99.99
2023-04-07T04:59:34.533Z,99.99
2023-04-07T05:00:34.417Z,99.99
2023-04-07T05:01:34.438Z,99.99
2023-04-07T05:02:34.436Z,99.99
2023-04-07T05:03:34.506Z,99.99
2023-04-07T05:04:34.419Z,99.99
2023-04-07T05:05:34.324Z,99.99
2023-04-07T05:06:34.323Z,99.99
2023-04-07T05:07:34.317Z,99.99
2023-04-07T05:08:34.282Z,99.99
2023-04-07T05:09:34.283Z,99.99
2023-04-07T05:10:34.269Z,99.99
2023-04-07T05:11:34.310Z,99.99
2023-04-07T05:12:34.260Z,99.99
2023-04-07T05:13:34.262Z,99.99
2023-04-07T05:14:34.246Z,99.99
2023-04-07T05:15:34.262Z,99.99
2023-04-07T05:16:34.221Z,99.99
2023-04-07T05:17:34.251Z,99.99
2023-04-07T05:18:34.176Z,99.99
2023-04-07T05:19:34.236Z,99.99
2023-04-07T05:20:34.155Z,99.99
2023-04-07T05:21:34.169Z,99.99
2023-04-07T05:22:34.223Z,99.99
2023-04-07T05:23:34.145Z,99.99
2023-04-07T05:24:34.473Z,99.99
2023-04-07T05:25:34.126Z,99.99
2023-04-07T05:26:34.133Z,99.99
2023-04-07T05:27:34.412Z,99.99
2023-04-07T05:28:34.079Z,99.99
2023-04-07T05:29:34.107Z,99.99
2023-04-07T05:30:34.045Z,99.99
2023-04-07T05:31:34.059Z,99.99
2023-04-07T05:32:34.143Z,99.99
2023-04-07T05:33:33.989Z,99.99
2023-04-07T05:34:34.023Z,99.99
2023-04-07T05:35:33.980Z,99.99
2023-04-07T05:36:33.989Z,99.99
2023-04-07T05:37:34.000Z,99.99
2023-04-07T05:38:33.984Z,99.99
2023-04-07T05:39:33.968Z,99.99
2023-04-07T05:40:36.934Z,99.99
2023-04-07T05:41:33.919Z,99.99
2023-04-07T05:42:33.910Z,99.99
2023-04-07T05:43:33.913Z,99.99
2023-04-07T05:44:33.892Z,99.99
2023-04-07T05:45:33.959Z,99.99
2023-04-07T05:46:33.903Z,99.99
2023-04-07T05:47:33.901Z,99.99
2023-04-07T05:48:33.828Z,99.99
2023-04-07T05:49:33.867Z,99.99
2023-04-07T05:50:34.145Z,99.99
2023-04-07T05:51:33.796Z,99.99
2023-04-07T05:52:33.819Z,99.99
2023-04-07T05:53:35.771Z,99.99
2023-04-07T05:54:34.097Z,99.99
2023-04-07T05:55:33.762Z,99.99
2023-04-07T05:56:33.759Z,99.99
2023-04-07T05:57:33.768Z,99.99
2023-04-07T05:58:33.779Z,99.99
2023-04-07T05:59:33.745Z,99.99
2023-04-07T06:00:34.104Z,99.99
2023-04-07T06:01:33.784Z,99.99
2023-04-07T06:02:33.801Z,99.99
2023-04-07T06:03:33.744Z,99.99
2023-04-07T06:04:33.680Z,99.99
2023-04-07T06:05:33.686Z,99.99
2023-04-07T06:06:33.979Z,99.99
2023-04-07T06:07:33.630Z,99.99
2023-04-07T06:08:33.633Z,99.99
2023-04-07T06:09:33.676Z,99.99
2023-04-07T06:10:33.650Z,99.99
2023-04-07T06:11:33.641Z,99.99
2023-04-07T06:12:33.626Z,99.99
2023-04-07T06:13:33.541Z,99.99
2023-04-07T06:14:33.576Z,99.99
2023-04-07T06:15:33.545Z,99.99
2023-04-07T06:16:33.570Z,99.99
2023-04-07T06:17:33.529Z,99.99
2023-04-07T06:18:33.523Z,99.99
2023-04-07T06:19:33.523Z,99.99
2023-04-07T06:20:33.481Z,99.99
2023-04-07T06:21:33.475Z,99.99
2023-04-07T06:22:33.465Z,99.99
2023-04-07T06:23:33.502Z,99.99
2023-04-07T06:24:33.496Z,99.99
2023-04-07T06:25:33.432Z,99.99
2023-04-07T06:26:33.422Z,99.99
2023-04-07T06:27:33.413Z,99.99
2023-04-07T06:28:33.423Z,99.99
2023-04-07T06:29:33.432Z,99.99
2023-04-07T06:30:33.394Z,99.99
2023-04-07T06:31:33.449Z,99.99
2023-04-07T06:32:33.505Z,99.99
2023-04-07T06:33:33.339Z,99.99
2023-04-07T06:34:33.346Z,99.99
2023-04-07T06:35:33.337Z,99.99
2023-04-07T06:36:33.302Z,99.99
2023-04-07T06:37:33.372Z,99.99
2023-04-07T06:38:33.310Z,99.99
2023-04-07T06:39:33.298Z,99.99
2023-04-07T06:40:33.240Z,99.99
2023-04-07T06:41:36.053Z,99.99
2023-04-07T06:42:33.264Z,99.99
2023-04-07T06:43:33.239Z,99.99
2023-04-07T06:44:33.222Z,99.99
2023-04-07T06:45:33.237Z,99.99
2023-04-07T06:46:33.236Z,99.99
2023-04-07T06:47:33.245Z,99.99
2023-04-07T06:48:33.195Z,99.99
2023-04-07T06:49:34.642Z,99.99
2023-04-07T06:50:33.175Z,99.99
2023-04-07T06:51:33.156Z,99.99
2023-04-07T06:52:33.161Z,99.99
2023-04-07T06:53:33.123Z,99.99
2023-04-07T06:54:33.190Z,99.99
2023-04-07T06:55:33.114Z,99.99
2023-04-07T06:56:33.106Z,99.99
2023-04-07T06:57:33.067Z,99.99
2023-04-07T06:58:33.067Z,99.99
2023-04-07T06:59:33.340Z,99.99
2023-04-07T07:00:33.566Z,99.99
2023-04-07T07:01:33.198Z,99.99
2023-04-07T07:02:33.111Z,99.99
2023-04-07T07:03:33.088Z,99.99
2023-04-07T07:04:33.056Z,99.99
2023-04-07T07:05:32.981Z,99.99
2023-04-07T07:06:32.959Z,99.99
2023-04-07T07:07:33.036Z,99.99
2023-04-07T07:08:32.982Z,99.99
2023-04-07T07:09:32.944Z,99.99
2023-04-07T07:10:32.922Z,99.99
2023-04-07T07:11:32.901Z,99.99
2023-04-07T07:12:32.906Z,99.99
2023-04-07T07:13:32.933Z,99.99
2023-04-07T07:14:32.905Z,99.99
2023-04-07T07:15:32.874Z,99.99
2023-04-07T07:16:32.870Z,99.99
2023-04-07T07:17:32.933Z,99.99
2023-04-07T07:18:32.873Z,99.99
2023-04-07T07:19:32.825Z,99.99
2023-04-07T07:20:33.127Z,99.99
2023-04-07T07:21:32.916Z,99.99
2023-04-07T07:22:32.793Z,99.99
2023-04-07T07:23:32.832Z,99.99
2023-04-07T07:24:32.843Z,99.99
2023-04-07T07:25:32.770Z,99.99
2023-04-07T07:26:32.794Z,99.99
2023-04-07T07:27:36.102Z,99.99
2023-04-07T07:28:32.731Z,99.99
2023-04-07T07:29:32.724Z,99.99
2023-04-07T07:30:35.453Z,99.99
2023-04-07T07:31:32.779Z,99.99
2023-04-07T07:32:32.691Z,99.99
2023-04-07T07:33:32.716Z,99.99
2023-04-07T07:34:32.915Z,99.99
2023-04-07T07:35:32.654Z,99.99
2023-04-07T07:36:32.641Z,99.99
2023-04-07T07:37:32.636Z,99.99
2023-04-07T07:38:33.367Z,99.99
2023-04-07T07:39:32.600Z,99.99
2023-04-07T07:40:32.574Z,99.99
2023-04-07T07:41:32.601Z,99.99
2023-04-07T07:42:32.561Z,99.99
2023-04-07T07:43:32.580Z,99.99
2023-04-07T07:44:32.704Z,99.99
2023-04-07T07:45:32.566Z,99.99
2023-04-07T07:46:32.544Z,99.99
2023-04-07T07:47:32.537Z,99.99
2023-04-07T07:48:32.506Z,99.99
2023-04-07T07:49:32.478Z,99.99
2023-04-07T07:50:32.700Z,99.99
2023-04-07T07:51:32.484Z,99.99
2023-04-07T07:52:32.453Z,99.99
2023-04-07T07:53:32.450Z,99.99
2023-04-07T07:54:32.751Z,99.99
2023-04-07T07:55:32.404Z,99.99
2023-04-07T07:56:32.431Z,99.99
2023-04-07T07:57:32.386Z,99.99
2023-04-07T07:58:32.410Z,99.99
2023-04-07T07:59:32.689Z,99.99
2023-04-07T08:00:32.345Z,99.99
2023-04-07T08:01:32.395Z,99.99
2023-04-07T08:02:32.384Z,99.99
2023-04-07T08:03:32.455Z,99.99
2023-04-07T08:04:32.320Z,99.99
2023-04-07T08:05:32.299Z,99.99
2023-04-07T08:06:32.279Z,99.99
2023-04-07T08:07:32.308Z,99.99
2023-04-07T08:08:32.592Z,99.99
2023-04-07T08:09:32.303Z,99.99
2023-04-07T08:10:32.244Z,99.99
2023-04-07T08:11:32.225Z,99.99
2023-04-07T08:12:32.205Z,99.99
2023-04-07T08:13:32.214Z,99.99
2023-04-07T08:14:32.236Z,99.99
2023-04-07T08:15:32.186Z,99.99
2023-04-07T08:16:32.240Z,99.99
2023-04-07T08:17:32.193Z,99.99
2023-04-07T08:18:32.183Z,99.99
2023-04-07T08:19:32.147Z,99.99
2023-04-07T08:20:32.121Z,99.99
2023-04-07T08:21:32.154Z,99.99
2023-04-07T08:22:32.101Z,99.99
2023-04-07T08:23:32.099Z,99.99
2023-04-07T08:24:32.084Z,99.99
2023-04-07T08:25:32.097Z,99.99
2023-04-07T08:26:32.090Z,99.99
2023-04-07T08:27:32.081Z,99.99
2023-04-07T08:28:32.033Z,99.99
2023-04-07T08:29:32.406Z,99.99
2023-04-07T08:30:32.009Z,99.99
2023-04-07T08:31:32.065Z,99.99
2023-04-07T08:32:33.822Z,99.99
2023-04-07T08:33:31.971Z,99.99
2023-04-07T08:34:31.974Z,99.99
2023-04-07T08:35:31.952Z,99.99
2023-04-07T08:36:31.978Z,99.99
2023-04-07T08:37:31.947Z,99.99
2023-04-07T08:38:31.920Z,99.99
2023-04-07T08:39:31.931Z,99.99
2023-04-07T08:40:32.169Z,99.99
2023-04-07T08:41:31.891Z,99.99
2023-04-07T08:42:31.919Z,99.99
2023-04-07T08:43:31.871Z,99.99
2023-04-07T08:44:31.875Z,99.99
2023-04-07T08:45:31.873Z,99.99
2023-04-07T08:46:33.729Z,99.99
2023-04-07T08:47:31.833Z,99.99
2023-04-07T08:48:31.835Z,99.99
2023-04-07T08:49:34.674Z,99.99
2023-04-07T08:50:31.838Z,99.99
2023-04-07T08:51:32.085Z,99.99
2023-04-07T08:52:31.771Z,99.99
2023-04-07T08:53:31.859Z,99.99
2023-04-07T08:54:31.805Z,99.99
2023-04-07T08:55:31.745Z,99.99
2023-04-07T08:56:31.713Z,99.99
2023-04-07T08:57:31.729Z,99.99
2023-04-07T08:58:31.696Z,99.99
2023-04-07T08:59:31.732Z,99.99
2023-04-07T09:00:31.672Z,99.99
2023-04-07T09:01:31.786Z,99.99
2023-04-07T09:02:31.787Z,99.99
2023-04-07T09:03:31.742Z,99.99
2023-04-07T09:04:31.641Z,99.99
2023-04-07T09:05:31.648Z,99.99
2023-04-07T09:06:31.623Z,99.99
2023-04-07T09:07:31.581Z,99.99
2023-04-07T09:08:31.580Z,99.99
2023-04-07T09:09:31.609Z,99.99
2023-04-07T09:10:31.558Z,99.99
2023-04-07T09:11:31.541Z,99.99
2023-04-07T09:12:31.553Z,99.99
2023-04-07T09:13:31.537Z,99.99
2023-04-07T09:14:31.534Z,99.99
2023-04-07T09:15:31.527Z,99.99
2023-04-07T09:16:31.567Z,99.99
2023-04-07T09:17:31.559Z,99.99
2023-04-07T09:18:31.496Z,99.99
2023-04-07T09:19:31.470Z,99.99
2023-04-07T09:20:31.452Z,99.99
2023-04-07T09:21:31.443Z,99.99
2023-04-07T09:22:31.405Z,99.99
2023-04-07T09:23:31.407Z,99.99
2023-04-07T09:24:31.436Z,99.99
2023-04-07T09:25:31.392Z,99.99
2023-04-07T09:26:31.370Z,99.99
2023-04-07T09:27:31.368Z,99.99
2023-04-07T09:28:31.354Z,99.99
2023-04-07T09:29:31.330Z,99.99
2023-04-07T09:30:31.337Z,99.99
2023-04-07T09:31:31.372Z,99.99
2023-04-07T09:32:31.336Z,99.99
2023-04-07T09:33:31.342Z,99.99
2023-04-07T09:34:31.288Z,99.99
2023-04-07T09:35:31.289Z,99.99
2023-04-07T09:36:31.581Z,99.99
2023-04-07T09:37:31.253Z,99.99
2023-04-07T09:38:31.249Z,99.99
2023-04-07T09:39:31.278Z,99.99
2023-04-07T09:40:31.210Z,99.99
2023-04-07T09:41:31.261Z,99.99
2023-04-07T09:42:31.471Z,99.99
2023-04-07T09:43:31.203Z,99.99
2023-04-07T09:44:31.175Z,99.99
2023-04-07T09:45:35.347Z,99.99
2023-04-07T09:46:32.231Z,99.99
2023-04-07T09:47:31.152Z,99.99
2023-04-07T09:48:31.137Z,99.99
2023-04-07T09:49:31.157Z,99.99
2023-04-07T09:50:31.096Z,99.99
2023-04-07T09:51:31.085Z,99.99
2023-04-07T09:52:31.101Z,99.99
2023-04-07T09:53:31.066Z,99.99
2023-04-07T09:54:31.056Z,99.99
2023-04-07T09:55:31.033Z,99.99
2023-04-07T09:56:31.048Z,99.99
2023-04-07T09:57:31.070Z,99.99
2023-04-07T09:58:31.009Z,99.99
2023-04-07T09:59:31.051Z,99.99
2023-04-07T10:00:31.001Z,99.99
2023-04-07T10:01:31.061Z,99.99
2023-04-07T10:02:31.033Z,99.99
2023-04-07T10:03:31.044Z,99.99
2023-04-07T10:04:31.046Z,99.99
2023-04-07T10:05:30.935Z,99.99
2023-04-07T10:06:30.951Z,99.99
2023-04-07T10:07:30.916Z,99.99
2023-04-07T10:08:30.902Z,99.99
2023-04-07T10:09:30.917Z,99.99
2023-04-07T10:10:30.868Z,99.99
2023-04-07T10:11:30.860Z,99.99
2023-04-07T10:12:30.853Z,99.99
2023-04-07T10:13:31.008Z,99.99
2023-04-07T10:14:30.869Z,99.99
2023-04-07T10:15:30.818Z,99.99
2023-04-07T10:16:30.849Z,99.99
2023-04-07T10:17:33.309Z,99.99
2023-04-07T10:18:30.784Z,99.99
2023-04-07T10:19:30.865Z,99.99
2023-04-07T10:20:31.126Z,99.99
2023-04-07T10:21:32.836Z,99.99
2023-04-07T10:22:30.756Z,99.99
2023-04-07T10:23:31.952Z,99.89
2023-04-07T10:24:30.721Z,99.99
2023-04-07T10:25:30.713Z,99.99
2023-04-07T10:26:30.689Z,99.99
2023-04-07T10:27:30.694Z,99.99
2023-04-07T10:28:30.658Z,99.38
2023-04-07T10:29:30.704Z,99.48
2023-04-07T10:30:30.659Z,99.38
2023-04-07T10:31:30.818Z,99.48
2023-04-07T10:32:30.647Z,99.58
2023-04-07T10:33:30.839Z,99.17
2023-04-07T10:34:30.586Z,98.96
2023-04-07T10:35:30.620Z,99.17
2023-04-07T10:36:30.601Z,99.27
2023-04-07T10:37:30.563Z,99.27
2023-04-07T10:38:30.563Z,98.96
2023-04-07T10:39:30.574Z,99.17
2023-04-07T10:40:30.597Z,99.07
2023-04-07T10:41:30.515Z,98.55
2023-04-07T10:42:31.651Z,99.07
2023-04-07T10:43:30.574Z,99.48
2023-04-07T10:44:30.493Z,99.38
2023-04-07T10:45:30.571Z,99.68
2023-04-07T10:46:30.494Z,99.27
2023-04-07T10:47:31.727Z,98.45
2023-04-07T10:48:30.432Z,97.88
2023-04-07T10:49:30.437Z,98.08
2023-04-07T10:50:30.422Z,97.88
2023-04-07T10:51:30.390Z,98.08
2023-04-07T10:52:30.387Z,97.99
2023-04-07T10:53:30.853Z,97.78
2023-04-07T10:54:30.379Z,97.99
2023-04-07T10:55:30.342Z,98.08
2023-04-07T10:56:30.334Z,98.39
2023-04-07T10:57:30.340Z,98.80
2023-04-07T10:58:30.339Z,98.66
2023-04-07T10:59:30.309Z,98.39
2023-04-07T11:00:30.319Z,98.29
2023-04-07T11:01:30.352Z,98.08
2023-04-07T11:02:31.473Z,98.25
2023-04-07T11:03:30.409Z,98.04
2023-04-07T11:04:31.116Z,97.83
2023-04-07T11:05:31.090Z,97.53
2023-04-07T11:06:30.252Z,97.22
2023-04-07T11:07:30.484Z,97.63
2023-04-07T11:08:30.232Z,97.53
2023-04-07T11:09:30.251Z,97.42
2023-04-07T11:10:30.186Z,97.53
2023-04-07T11:11:30.235Z,97.02
2023-04-07T11:12:30.417Z,96.97
2023-04-07T11:13:30.153Z,97.38
2023-04-07T11:14:30.138Z,97.48
2023-04-07T11:15:30.154Z,97.07
2023-04-07T11:16:30.157Z,96.92
2023-04-07T11:17:30.145Z,96.62
2023-04-07T11:18:30.097Z,96.92
2023-04-07T11:19:30.057Z,97.03
2023-04-07T11:20:30.050Z,96.87
2023-04-07T11:21:30.125Z,97.33
2023-04-07T11:22:30.711Z,97.64
2023-04-07T11:23:30.800Z,97.44
2023-04-07T11:24:30.035Z,97.23
2023-04-07T11:25:30.061Z,97.23
2023-04-07T11:26:38.046Z,97.13
2023-04-07T11:27:29.965Z,96.98
2023-04-07T11:28:37.314Z,97.03
2023-04-07T11:29:29.941Z,96.31
2023-04-07T11:30:29.948Z,96.41
2023-04-07T11:31:30.462Z,96.62
2023-04-07T11:32:30.015Z,96.62
2023-04-07T11:33:29.918Z,96.62
2023-04-07T11:34:30.032Z,97.23
2023-04-07T11:35:29.926Z,96.72
2023-04-07T11:36:30.269Z,96.78
2023-04-07T11:37:29.853Z,96.51
2023-04-07T11:38:29.927Z,96.67
2023-04-07T11:39:29.884Z,97.08
2023-04-07T11:40:29.824Z,97.08
2023-04-07T11:41:29.962Z,97.39
2023-04-07T11:42:29.899Z,97.29
2023-04-07T11:43:30.735Z,97.19
2023-04-07T11:44:29.774Z,97.49
2023-04-07T11:45:29.784Z,97.91
2023-04-07T11:46:29.824Z,97.60
2023-04-07T11:47:29.789Z,97.64
2023-04-07T11:48:29.765Z,97.95
2023-04-07T11:49:29.724Z,98.25
2023-04-07T11:50:29.712Z,98.87
2023-04-07T11:51:30.658Z,98.87
2023-04-07T11:52:29.693Z,98.87
2023-04-07T11:53:29.689Z,98.97
2023-04-07T11:54:29.664Z,98.77
2023-04-07T11:55:30.423Z,98.46
2023-04-07T11:56:29.639Z,98.42
2023-04-07T11:57:29.664Z,98.52
2023-04-07T11:58:29.665Z,98.32
2023-04-07T11:59:29.602Z,98.52
2023-04-07T12:00:29.588Z,98.62
2023-04-07T12:01:29.758Z,98.83
2023-04-07T12:02:29.707Z,98.83
2023-04-07T12:03:29.671Z,99.34
2023-04-07T12:04:29.649Z,99.65
2023-04-07T12:05:29.528Z,99.34
2023-04-07T12:06:29.608Z,99.65
2023-04-07T12:07:29.533Z,99.59
2023-04-07T12:08:30.594Z,99.38
2023-04-07T12:09:29.528Z,99.22
2023-04-07T12:10:29.476Z,99.84
2023-04-07T12:11:29.486Z,99.99
2023-04-07T12:12:29.456Z,99.43
2023-04-07T12:13:29.464Z,99.95
2023-04-07T12:14:29.439Z,99.99
2023-04-07T12:15:29.410Z,99.99
2023-04-07T12:16:29.454Z,99.99
2023-04-07T12:17:29.455Z,99.99
2023-04-07T12:18:29.452Z,99.99
2023-04-07T12:19:29.384Z,99.99
2023-04-07T12:20:29.381Z,99.99
2023-04-07T12:21:29.354Z,99.99
2023-04-07T12:22:29.333Z,99.99
2023-04-07T12:23:29.331Z,99.99
2023-04-07T12:24:29.325Z,99.99
2023-04-07T12:25:29.301Z,99.99
2023-04-07T12:26:29.304Z,99.99
2023-04-07T12:27:41.653Z,99.54
2023-04-07T12:28:30.320Z,99.65
2023-04-07T12:29:29.488Z,99.99
2023-04-07T12:30:30.832Z,99.99
2023-04-07T12:31:29.276Z,99.99
2023-04-07T12:32:29.337Z,99.99
2023-04-07T12:33:29.217Z,99.95
2023-04-07T12:34:29.200Z,99.99
2023-04-07T12:35:29.239Z,99.99
2023-04-07T12:36:29.217Z,99.90
2023-04-07T12:37:30.350Z,99.99
2023-04-07T12:38:30.249Z,99.99
2023-04-07T12:39:29.162Z,99.99
2023-04-07T12:40:29.133Z,99.99
2023-04-07T12:41:29.152Z,99.99
2023-04-07T12:42:29.125Z,99.99
2023-04-07T12:43:29.126Z,99.99
2023-04-07T12:44:29.134Z,99.99
2023-04-07T12:45:29.067Z,99.99
2023-04-07T12:46:29.107Z,99.99
2023-04-07T12:47:29.081Z,99.99
2023-04-07T12:48:29.026Z,99.60
2023-04-07T12:49:29.712Z,99.99
2023-04-07T12:50:29.046Z,99.99
2023-04-07T12:51:29.008Z,99.86
2023-04-07T12:52:29.011Z,99.55